sensor_id;sensor_type;location;lat;lon;timestamp;P1;durP1;ratioP1;P2;durP2;ratioP2
39896;SDS011;25567;48.276;14.242;2023-08-24T00:01:37;10.32;;;7.45;;
39896;SDS011;25567;48.276;14.242;2023-08-24T00:04:04;11.50;;;6.95;;
39896;SDS011;25567;48.276;14.242;2023-08-24T00:06:30;12.18;;;7.88;;
39896;SDS011;25567;48.276;14.242;2023-08-24T00:08:58;12.43;;;7.35;;
39896;SDS011;25567;48.276;14.242;2023-08-24T00:11:25;13.85;;;8.02;;
39896;SDS011;25567;48.276;14.242;2023-08-24T00:13:52;16.73;;;7.35;;
39896;SDS011;25567;48.276;14.242;2023-08-24T00:16:20;14.45;;;7.30;;
39896;SDS011;25567;48.276;14.242;2023-08-24T00:18:47;11.50;;;7.85;;
39896;SDS011;25567;48.276;14.242;2023-08-24T00:21:13;11.98;;;6.88;;
39896;SDS011;25567;48.276;14.242;2023-08-24T00:23:43;10.95;;;7.20;;
39896;SDS011;25567;48.276;14.242;2023-08-24T00:26:10;12.73;;;7.63;;
39896;SDS011;25567;48.276;14.242;2023-08-24T00:28:37;11.48;;;7.03;;
39896;SDS011;25567;48.276;14.242;2023-08-24T00:31:03;10.95;;;7.57;;
39896;SDS011;25567;48.276;14.242;2023-08-24T00:33:30;9.30;;;7.15;;
39896;SDS011;25567;48.276;14.242;2023-08-24T00:36:00;16.95;;;7.63;;
39896;SDS011;25567;48.276;14.242;2023-08-24T00:38:27;11.07;;;7.00;;
39896;SDS011;25567;48.276;14.242;2023-08-24T00:40:53;11.65;;;7.68;;
39896;SDS011;25567;48.276;14.242;2023-08-24T00:43:20;10.23;;;6.88;;
39896;SDS011;25567;48.276;14.242;2023-08-24T00:45:50;14.40;;;7.68;;
39896;SDS011;25567;48.276;14.242;2023-08-24T00:48:18;9.50;;;7.07;;
39896;SDS011;25567;48.276;14.242;2023-08-24T00:50:45;16.55;;;7.20;;
39896;SDS011;25567;48.276;14.242;2023-08-24T00:53:11;11.95;;;6.85;;
39896;SDS011;25567;48.276;14.242;2023-08-24T00:55:38;14.77;;;7.68;;
39896;SDS011;25567;48.276;14.242;2023-08-24T00:58:05;15.40;;;8.20;;
39896;SDS011;25567;48.276;14.242;2023-08-24T01:00:32;13.05;;;7.38;;
39896;SDS011;25567;48.276;14.242;2023-08-24T01:02:59;10.43;;;7.32;;
39896;SDS011;25567;48.276;14.242;2023-08-24T01:05:25;9.65;;;7.10;;
39896;SDS011;25567;48.276;14.242;2023-08-24T01:07:52;13.93;;;7.72;;
39896;SDS011;25567;48.276;14.242;2023-08-24T01:10:19;15.20;;;7.45;;
39896;SDS011;25567;48.276;14.242;2023-08-24T01:17:48;17.08;;;7.10;;
39896;SDS011;25567;48.276;14.242;2023-08-24T01:20:16;15.13;;;7.93;;
39896;SDS011;25567;48.276;14.242;2023-08-24T01:25:34;12.70;;;8.25;;
39896;SDS011;25567;48.276;14.242;2023-08-24T01:28:03;11.32;;;7.30;;
39896;SDS011;25567;48.276;14.242;2023-08-24T01:30:32;12.65;;;7.28;;
39896;SDS011;25567;48.276;14.242;2023-08-24T01:32:59;12.98;;;7.38;;
39896;SDS011;25567;48.276;14.242;2023-08-24T01:35:28;20.17;;;7.95;;
39896;SDS011;25567;48.276;14.242;2023-08-24T01:37:55;20.83;;;7.65;;
39896;SDS011;25567;48.276;14.242;2023-08-24T01:40:39;16.50;;;8.25;;
39896;SDS011;25567;48.276;14.242;2023-08-24T01:43:09;13.52;;;8.63;;
39896;SDS011;25567;48.276;14.242;2023-08-24T01:45:36;14.23;;;7.55;;
39896;SDS011;25567;48.276;14.242;2023-08-24T01:48:03;12.95;;;8.05;;
39896;SDS011;25567;48.276;14.242;2023-08-24T01:50:30;17.15;;;8.23;;
39896;SDS011;25567;48.276;14.242;2023-08-24T01:52:57;15.45;;;8.82;;
39896;SDS011;25567;48.276;14.242;2023-08-24T01:55:23;14.27;;;7.85;;
39896;SDS011;25567;48.276;14.242;2023-08-24T01:57:50;23.17;;;8.40;;
39896;SDS011;25567;48.276;14.242;2023-08-24T02:00:17;14.38;;;8.80;;
39896;SDS011;25567;48.276;14.242;2023-08-24T02:02:44;15.80;;;8.25;;
39896;SDS011;25567;48.276;14.242;2023-08-24T02:05:10;15.77;;;8.88;;
39896;SDS011;25567;48.276;14.242;2023-08-24T02:07:38;14.70;;;9.07;;
39896;SDS011;25567;48.276;14.242;2023-08-24T02:10:05;12.98;;;8.13;;
39896;SDS011;25567;48.276;14.242;2023-08-24T02:12:32;15.43;;;8.20;;
39896;SDS011;25567;48.276;14.242;2023-08-24T02:14:58;17.27;;;8.30;;
39896;SDS011;25567;48.276;14.242;2023-08-24T02:17:25;15.57;;;9.27;;
39896;SDS011;25567;48.276;14.242;2023-08-24T02:19:52;12.38;;;8.18;;
39896;SDS011;25567;48.276;14.242;2023-08-24T02:22:19;14.43;;;8.10;;
39896;SDS011;25567;48.276;14.242;2023-08-24T02:24:45;17.83;;;9.60;;
39896;SDS011;25567;48.276;14.242;2023-08-24T02:27:12;13.68;;;8.63;;
39896;SDS011;25567;48.276;14.242;2023-08-24T02:29:39;12.63;;;8.27;;
39896;SDS011;25567;48.276;14.242;2023-08-24T02:32:05;10.63;;;7.85;;
39896;SDS011;25567;48.276;14.242;2023-08-24T02:34:32;16.05;;;8.70;;
39896;SDS011;25567;48.276;14.242;2023-08-24T02:36:59;20.77;;;8.45;;
39896;SDS011;25567;48.276;14.242;2023-08-24T02:39:26;10.20;;;7.25;;
39896;SDS011;25567;48.276;14.242;2023-08-24T02:41:52;16.15;;;7.93;;
39896;SDS011;25567;48.276;14.242;2023-08-24T02:44:19;12.88;;;7.60;;
39896;SDS011;25567;48.276;14.242;2023-08-24T02:46:45;20.48;;;8.77;;
39896;SDS011;25567;48.276;14.242;2023-08-24T02:49:12;13.20;;;8.15;;
39896;SDS011;25567;48.276;14.242;2023-08-24T02:51:38;16.10;;;8.93;;
39896;SDS011;25567;48.276;14.242;2023-08-24T02:54:05;16.10;;;9.10;;
39896;SDS011;25567;48.276;14.242;2023-08-24T02:56:32;15.85;;;9.57;;
39896;SDS011;25567;48.276;14.242;2023-08-24T02:58:58;18.35;;;9.90;;
39896;SDS011;25567;48.276;14.242;2023-08-24T03:01:25;20.30;;;9.65;;
39896;SDS011;25567;48.276;14.242;2023-08-24T03:03:53;18.80;;;9.32;;
39896;SDS011;25567;48.276;14.242;2023-08-24T03:06:19;25.35;;;10.50;;
39896;SDS011;25567;48.276;14.242;2023-08-24T03:08:46;18.55;;;9.27;;
39896;SDS011;25567;48.276;14.242;2023-08-24T03:11:12;18.50;;;9.25;;
39896;SDS011;25567;48.276;14.242;2023-08-24T03:13:38;17.40;;;10.38;;
39896;SDS011;25567;48.276;14.242;2023-08-24T03:16:05;14.95;;;9.15;;
39896;SDS011;25567;48.276;14.242;2023-08-24T03:18:32;19.50;;;10.35;;
39896;SDS011;25567;48.276;14.242;2023-08-24T03:20:59;23.10;;;10.18;;
39896;SDS011;25567;48.276;14.242;2023-08-24T03:23:25;21.13;;;11.32;;
39896;SDS011;25567;48.276;14.242;2023-08-24T03:25:52;22.35;;;10.90;;
39896;SDS011;25567;48.276;14.242;2023-08-24T03:28:18;19.35;;;10.88;;
39896;SDS011;25567;48.276;14.242;2023-08-24T03:30:46;23.00;;;11.32;;
39896;SDS011;25567;48.276;14.242;2023-08-24T03:33:13;17.95;;;11.35;;
39896;SDS011;25567;48.276;14.242;2023-08-24T03:35:40;20.33;;;11.10;;
39896;SDS011;25567;48.276;14.242;2023-08-24T03:38:07;23.88;;;11.40;;
39896;SDS011;25567;48.276;14.242;2023-08-24T03:40:33;20.40;;;9.93;;
39896;SDS011;25567;48.276;14.242;2023-08-24T03:43:01;15.57;;;10.00;;
39896;SDS011;25567;48.276;14.242;2023-08-24T03:45:28;15.02;;;9.52;;
39896;SDS011;25567;48.276;14.242;2023-08-24T03:47:55;20.83;;;9.82;;
39896;SDS011;25567;48.276;14.242;2023-08-24T03:50:22;20.17;;;9.95;;
39896;SDS011;25567;48.276;14.242;2023-08-24T03:52:52;17.63;;;10.15;;
39896;SDS011;25567;48.276;14.242;2023-08-24T03:55:20;21.55;;;9.90;;
39896;SDS011;25567;48.276;14.242;2023-08-24T03:57:47;22.55;;;10.05;;
39896;SDS011;25567;48.276;14.242;2023-08-24T04:00:15;16.48;;;8.82;;
39896;SDS011;25567;48.276;14.242;2023-08-24T04:02:41;18.48;;;8.88;;
39896;SDS011;25567;48.276;14.242;2023-08-24T04:05:08;20.25;;;11.50;;
39896;SDS011;25567;48.276;14.242;2023-08-24T04:07:35;17.25;;;9.80;;
39896;SDS011;25567;48.276;14.242;2023-08-24T04:10:06;20.83;;;10.93;;
39896;SDS011;25567;48.276;14.242;2023-08-24T04:12:33;20.50;;;10.48;;
39896;SDS011;25567;48.276;14.242;2023-08-24T04:14:59;18.50;;;11.15;;
39896;SDS011;25567;48.276;14.242;2023-08-24T04:17:26;27.17;;;12.55;;
39896;SDS011;25567;48.276;14.242;2023-08-24T04:19:53;22.00;;;13.25;;
39896;SDS011;25567;48.276;14.242;2023-08-24T04:22:19;23.80;;;12.38;;
39896;SDS011;25567;48.276;14.242;2023-08-24T04:24:46;24.15;;;12.70;;
39896;SDS011;25567;48.276;14.242;2023-08-24T04:27:13;20.70;;;12.07;;
39896;SDS011;25567;48.276;14.242;2023-08-24T04:29:39;23.38;;;12.90;;
39896;SDS011;25567;48.276;14.242;2023-08-24T04:32:06;22.73;;;11.57;;
39896;SDS011;25567;48.276;14.242;2023-08-24T04:34:33;21.23;;;10.98;;
39896;SDS011;25567;48.276;14.242;2023-08-24T04:36:59;20.73;;;11.93;;
39896;SDS011;25567;48.276;14.242;2023-08-24T04:39:27;19.92;;;12.00;;
39896;SDS011;25567;48.276;14.242;2023-08-24T04:41:55;20.45;;;11.77;;
39896;SDS011;25567;48.276;14.242;2023-08-24T04:44:22;22.13;;;12.68;;
39896;SDS011;25567;48.276;14.242;2023-08-24T04:46:49;18.90;;;11.70;;
39896;SDS011;25567;48.276;14.242;2023-08-24T04:49:15;18.77;;;11.05;;
39896;SDS011;25567;48.276;14.242;2023-08-24T04:51:42;18.80;;;12.18;;
39896;SDS011;25567;48.276;14.242;2023-08-24T04:54:08;30.30;;;11.85;;
39896;SDS011;25567;48.276;14.242;2023-08-24T04:56:36;19.45;;;11.15;;
39896;SDS011;25567;48.276;14.242;2023-08-24T04:59:02;22.67;;;11.10;;
39896;SDS011;25567;48.276;14.242;2023-08-24T05:01:29;22.70;;;11.50;;
39896;SDS011;25567;48.276;14.242;2023-08-24T05:03:58;16.52;;;10.07;;
39896;SDS011;25567;48.276;14.242;2023-08-24T05:06:25;22.23;;;11.63;;
39896;SDS011;25567;48.276;14.242;2023-08-24T05:08:51;25.02;;;12.38;;
39896;SDS011;25567;48.276;14.242;2023-08-24T05:11:18;25.10;;;11.95;;
39896;SDS011;25567;48.276;14.242;2023-08-24T05:13:45;21.27;;;11.70;;
39896;SDS011;25567;48.276;14.242;2023-08-24T05:16:12;29.20;;;13.70;;
39896;SDS011;25567;48.276;14.242;2023-08-24T05:18:39;16.90;;;11.10;;
39896;SDS011;25567;48.276;14.242;2023-08-24T05:21:06;22.55;;;11.88;;
39896;SDS011;25567;48.276;14.242;2023-08-24T05:23:32;17.73;;;10.73;;
39896;SDS011;25567;48.276;14.242;2023-08-24T05:25:59;17.63;;;11.13;;
39896;SDS011;25567;48.276;14.242;2023-08-24T05:28:27;17.63;;;12.15;;
39896;SDS011;25567;48.276;14.242;2023-08-24T05:30:54;22.70;;;12.95;;
39896;SDS011;25567;48.276;14.242;2023-08-24T05:33:21;21.90;;;13.20;;
39896;SDS011;25567;48.276;14.242;2023-08-24T05:35:48;27.10;;;13.90;;
39896;SDS011;25567;48.276;14.242;2023-08-24T05:38:15;22.38;;;13.32;;
39896;SDS011;25567;48.276;14.242;2023-08-24T05:40:42;26.52;;;14.75;;
39896;SDS011;25567;48.276;14.242;2023-08-24T05:43:09;27.80;;;15.52;;
39896;SDS011;25567;48.276;14.242;2023-08-24T05:45:36;26.98;;;16.02;;
39896;SDS011;25567;48.276;14.242;2023-08-24T05:48:02;30.25;;;15.55;;
39896;SDS011;25567;48.276;14.242;2023-08-24T05:50:29;27.92;;;15.57;;
39896;SDS011;25567;48.276;14.242;2023-08-24T05:52:56;30.60;;;14.45;;
39896;SDS011;25567;48.276;14.242;2023-08-24T05:55:23;26.05;;;14.77;;
39896;SDS011;25567;48.276;14.242;2023-08-24T05:57:49;28.00;;;14.35;;
39896;SDS011;25567;48.276;14.242;2023-08-24T06:00:16;23.90;;;13.23;;
39896;SDS011;25567;48.276;14.242;2023-08-24T06:02:43;29.38;;;13.48;;
39896;SDS011;25567;48.276;14.242;2023-08-24T06:05:09;23.15;;;13.00;;
39896;SDS011;25567;48.276;14.242;2023-08-24T06:07:37;20.85;;;13.23;;
39896;SDS011;25567;48.276;14.242;2023-08-24T06:10:04;23.80;;;12.85;;
39896;SDS011;25567;48.276;14.242;2023-08-24T06:12:30;23.55;;;12.32;;
39896;SDS011;25567;48.276;14.242;2023-08-24T06:14:57;21.65;;;11.73;;
39896;SDS011;25567;48.276;14.242;2023-08-24T06:17:23;27.27;;;12.50;;
39896;SDS011;25567;48.276;14.242;2023-08-24T06:19:50;25.17;;;12.48;;
39896;SDS011;25567;48.276;14.242;2023-08-24T06:22:16;22.80;;;12.95;;
39896;SDS011;25567;48.276;14.242;2023-08-24T06:24:43;23.23;;;12.43;;
39896;SDS011;25567;48.276;14.242;2023-08-24T06:27:09;24.52;;;12.25;;
39896;SDS011;25567;48.276;14.242;2023-08-24T06:29:36;20.88;;;11.63;;
39896;SDS011;25567;48.276;14.242;2023-08-24T06:32:03;30.48;;;12.25;;
39896;SDS011;25567;48.276;14.242;2023-08-24T06:34:29;23.77;;;12.38;;
39896;SDS011;25567;48.276;14.242;2023-08-24T06:36:56;23.23;;;13.15;;
39896;SDS011;25567;48.276;14.242;2023-08-24T06:39:27;24.38;;;12.07;;
39896;SDS011;25567;48.276;14.242;2023-08-24T06:41:53;24.45;;;14.50;;
39896;SDS011;25567;48.276;14.242;2023-08-24T06:44:20;25.83;;;13.45;;
39896;SDS011;25567;48.276;14.242;2023-08-24T06:46:46;26.10;;;14.40;;
39896;SDS011;25567;48.276;14.242;2023-08-24T06:49:13;32.63;;;15.18;;
39896;SDS011;25567;48.276;14.242;2023-08-24T06:51:39;26.90;;;15.73;;
39896;SDS011;25567;48.276;14.242;2023-08-24T06:54:06;33.28;;;15.68;;
39896;SDS011;25567;48.276;14.242;2023-08-24T06:56:32;33.17;;;17.85;;
39896;SDS011;25567;48.276;14.242;2023-08-24T06:58:59;32.22;;;17.05;;
39896;SDS011;25567;48.276;14.242;2023-08-24T07:01:25;32.65;;;16.83;;
39896;SDS011;25567;48.276;14.242;2023-08-24T07:03:52;33.80;;;17.10;;
39896;SDS011;25567;48.276;14.242;2023-08-24T07:06:18;36.75;;;16.50;;
39896;SDS011;25567;48.276;14.242;2023-08-24T07:08:45;31.25;;;15.52;;
39896;SDS011;25567;48.276;14.242;2023-08-24T07:11:11;27.70;;;13.23;;
39896;SDS011;25567;48.276;14.242;2023-08-24T07:13:40;24.67;;;11.63;;
39896;SDS011;25567;48.276;14.242;2023-08-24T07:16:06;29.00;;;12.00;;
39896;SDS011;25567;48.276;14.242;2023-08-24T07:18:34;25.42;;;12.25;;
39896;SDS011;25567;48.276;14.242;2023-08-24T07:21:00;18.17;;;11.40;;
39896;SDS011;25567;48.276;14.242;2023-08-24T07:23:27;23.27;;;11.75;;
39896;SDS011;25567;48.276;14.242;2023-08-24T07:25:53;20.73;;;12.02;;
39896;SDS011;25567;48.276;14.242;2023-08-24T07:28:20;18.77;;;11.38;;
39896;SDS011;25567;48.276;14.242;2023-08-24T07:30:47;23.27;;;12.10;;
39896;SDS011;25567;48.276;14.242;2023-08-24T07:33:13;19.13;;;11.90;;
39896;SDS011;25567;48.276;14.242;2023-08-24T07:35:40;22.40;;;12.70;;
39896;SDS011;25567;48.276;14.242;2023-08-24T07:38:06;22.42;;;12.85;;
39896;SDS011;25567;48.276;14.242;2023-08-24T07:40:33;21.45;;;12.77;;
39896;SDS011;25567;48.276;14.242;2023-08-24T07:43:00;18.92;;;12.70;;
39896;SDS011;25567;48.276;14.242;2023-08-24T07:45:26;21.05;;;13.63;;
39896;SDS011;25567;48.276;14.242;2023-08-24T07:47:53;18.95;;;12.18;;
39896;SDS011;25567;48.276;14.242;2023-08-24T07:50:21;29.52;;;12.98;;
39896;SDS011;25567;48.276;14.242;2023-08-24T07:52:49;21.67;;;12.68;;
39896;SDS011;25567;48.276;14.242;2023-08-24T07:55:15;36.60;;;14.00;;
39896;SDS011;25567;48.276;14.242;2023-08-24T07:57:42;19.77;;;12.93;;
39896;SDS011;25567;48.276;14.242;2023-08-24T08:00:09;23.98;;;13.50;;
39896;SDS011;25567;48.276;14.242;2023-08-24T08:02:36;26.88;;;14.98;;
39896;SDS011;25567;48.276;14.242;2023-08-24T08:05:04;23.35;;;14.23;;
39896;SDS011;25567;48.276;14.242;2023-08-24T08:07:31;26.80;;;16.90;;
39896;SDS011;25567;48.276;14.242;2023-08-24T08:09:57;29.00;;;17.15;;
39896;SDS011;25567;48.276;14.242;2023-08-24T08:12:24;25.92;;;16.00;;
39896;SDS011;25567;48.276;14.242;2023-08-24T08:14:50;29.55;;;16.92;;
39896;SDS011;25567;48.276;14.242;2023-08-24T08:17:17;30.10;;;16.65;;
39896;SDS011;25567;48.276;14.242;2023-08-24T08:19:43;29.23;;;16.13;;
39896;SDS011;25567;48.276;14.242;2023-08-24T08:22:11;26.50;;;16.65;;
39896;SDS011;25567;48.276;14.242;2023-08-24T08:24:38;29.10;;;16.40;;
39896;SDS011;25567;48.276;14.242;2023-08-24T08:27:04;30.13;;;16.77;;
39896;SDS011;25567;48.276;14.242;2023-08-24T08:29:31;34.92;;;17.92;;
39896;SDS011;25567;48.276;14.242;2023-08-24T08:31:57;24.98;;;15.30;;
39896;SDS011;25567;48.276;14.242;2023-08-24T08:34:24;29.70;;;15.88;;
39896;SDS011;25567;48.276;14.242;2023-08-24T08:36:51;25.25;;;14.93;;
39896;SDS011;25567;48.276;14.242;2023-08-24T08:39:17;30.23;;;17.02;;
39896;SDS011;25567;48.276;14.242;2023-08-24T08:41:44;26.40;;;17.35;;
39896;SDS011;25567;48.276;14.242;2023-08-24T08:44:13;26.58;;;16.42;;
39896;SDS011;25567;48.276;14.242;2023-08-24T08:46:40;25.02;;;14.57;;
39896;SDS011;25567;48.276;14.242;2023-08-24T08:49:07;26.02;;;14.00;;
39896;SDS011;25567;48.276;14.242;2023-08-24T08:51:35;29.80;;;14.80;;
39896;SDS011;25567;48.276;14.242;2023-08-24T08:54:02;22.00;;;12.93;;
39896;SDS011;25567;48.276;14.242;2023-08-24T08:56:29;23.13;;;14.13;;
39896;SDS011;25567;48.276;14.242;2023-08-24T08:58:56;25.23;;;14.13;;
39896;SDS011;25567;48.276;14.242;2023-08-24T09:01:25;27.13;;;14.68;;
39896;SDS011;25567;48.276;14.242;2023-08-24T09:03:51;24.13;;;14.23;;
39896;SDS011;25567;48.276;14.242;2023-08-24T09:06:18;22.38;;;12.80;;
39896;SDS011;25567;48.276;14.242;2023-08-24T09:08:45;24.35;;;14.23;;
39896;SDS011;25567;48.276;14.242;2023-08-24T09:11:12;27.73;;;13.45;;
39896;SDS011;25567;48.276;14.242;2023-08-24T09:13:38;28.25;;;14.95;;
39896;SDS011;25567;48.276;14.242;2023-08-24T09:16:05;22.17;;;14.13;;
39896;SDS011;25567;48.276;14.242;2023-08-24T09:18:39;20.48;;;13.30;;
39896;SDS011;25567;48.276;14.242;2023-08-24T09:21:09;24.05;;;14.02;;
39896;SDS011;25567;48.276;14.242;2023-08-24T09:23:35;23.88;;;13.00;;
39896;SDS011;25567;48.276;14.242;2023-08-24T09:26:02;21.25;;;11.40;;
39896;SDS011;25567;48.276;14.242;2023-08-24T09:28:31;21.65;;;11.77;;
39896;SDS011;25567;48.276;14.242;2023-08-24T09:30:59;24.52;;;14.18;;
39896;SDS011;25567;48.276;14.242;2023-08-24T09:33:26;26.27;;;14.55;;
39896;SDS011;25567;48.276;14.242;2023-08-24T09:35:53;29.67;;;13.90;;
39896;SDS011;25567;48.276;14.242;2023-08-24T09:38:21;22.00;;;12.63;;
39896;SDS011;25567;48.276;14.242;2023-08-24T09:40:51;23.80;;;12.52;;
39896;SDS011;25567;48.276;14.242;2023-08-24T09:43:18;24.35;;;13.10;;
39896;SDS011;25567;48.276;14.242;2023-08-24T09:45:55;26.65;;;12.65;;
39896;SDS011;25567;48.276;14.242;2023-08-24T09:48:22;25.00;;;12.35;;
39896;SDS011;25567;48.276;14.242;2023-08-24T09:50:51;22.38;;;12.27;;
39896;SDS011;25567;48.276;14.242;2023-08-24T09:53:18;22.15;;;12.68;;
39896;SDS011;25567;48.276;14.242;2023-08-24T09:58:16;22.40;;;11.68;;
39896;SDS011;25567;48.276;14.242;2023-08-24T10:00:44;26.23;;;11.93;;
39896;SDS011;25567;48.276;14.242;2023-08-24T10:03:13;18.83;;;10.02;;
39896;SDS011;25567;48.276;14.242;2023-08-24T10:05:43;20.70;;;9.55;;
39896;SDS011;25567;48.276;14.242;2023-08-24T10:08:28;18.50;;;10.18;;
39896;SDS011;25567;48.276;14.242;2023-08-24T10:10:56;17.30;;;9.73;;
39896;SDS011;25567;48.276;14.242;2023-08-24T10:15:57;14.68;;;7.00;;
39896;SDS011;25567;48.276;14.242;2023-08-24T10:18:24;12.93;;;7.60;;
39896;SDS011;25567;48.276;14.242;2023-08-24T10:20:52;9.38;;;6.50;;
39896;SDS011;25567;48.276;14.242;2023-08-24T10:23:19;11.57;;;6.43;;
39896;SDS011;25567;48.276;14.242;2023-08-24T10:25:45;16.02;;;6.80;;
39896;SDS011;25567;48.276;14.242;2023-08-24T10:28:13;11.95;;;6.63;;
39896;SDS011;25567;48.276;14.242;2023-08-24T10:30:40;11.50;;;6.47;;
39896;SDS011;25567;48.276;14.242;2023-08-24T10:33:10;18.45;;;7.40;;
39896;SDS011;25567;48.276;14.242;2023-08-24T10:35:38;13.70;;;7.05;;
39896;SDS011;25567;48.276;14.242;2023-08-24T10:38:06;13.50;;;5.88;;
39896;SDS011;25567;48.276;14.242;2023-08-24T10:40:33;13.57;;;7.25;;
39896;SDS011;25567;48.276;14.242;2023-08-24T10:43:03;14.63;;;6.70;;
39896;SDS011;25567;48.276;14.242;2023-08-24T10:45:53;12.57;;;7.53;;
39896;SDS011;25567;48.276;14.242;2023-08-24T10:48:17;11.73;;;7.38;;
39896;SDS011;25567;48.276;14.242;2023-08-24T10:50:59;13.13;;;6.72;;
39896;SDS011;25567;48.276;14.242;2023-08-24T10:53:46;14.45;;;6.65;;
39896;SDS011;25567;48.276;14.242;2023-08-24T10:56:14;12.35;;;7.28;;
39896;SDS011;25567;48.276;14.242;2023-08-24T10:58:42;12.23;;;7.03;;
39896;SDS011;25567;48.276;14.242;2023-08-24T11:01:19;10.18;;;7.22;;
39896;SDS011;25567;48.276;14.242;2023-08-24T11:03:48;15.75;;;7.32;;
39896;SDS011;25567;48.276;14.242;2023-08-24T11:06:19;12.57;;;6.57;;
39896;SDS011;25567;48.276;14.242;2023-08-24T11:08:47;8.98;;;6.45;;
39896;SDS011;25567;48.276;14.242;2023-08-24T11:11:20;11.85;;;6.68;;
39896;SDS011;25567;48.276;14.242;2023-08-24T11:16:42;11.60;;;6.93;;
39896;SDS011;25567;48.276;14.242;2023-08-24T11:19:10;12.80;;;6.57;;
39896;SDS011;25567;48.276;14.242;2023-08-24T11:21:37;16.80;;;6.65;;
39896;SDS011;25567;48.276;14.242;2023-08-24T11:24:05;11.68;;;6.60;;
39896;SDS011;25567;48.276;14.242;2023-08-24T11:26:31;13.00;;;6.35;;
39896;SDS011;25567;48.276;14.242;2023-08-24T11:29:00;8.32;;;6.43;;
39896;SDS011;25567;48.276;14.242;2023-08-24T11:31:30;14.90;;;6.63;;
39896;SDS011;25567;48.276;14.242;2023-08-24T11:33:57;16.10;;;6.40;;
39896;SDS011;25567;48.276;14.242;2023-08-24T11:36:23;10.63;;;6.03;;
39896;SDS011;25567;48.276;14.242;2023-08-24T11:38:51;9.98;;;6.03;;
39896;SDS011;25567;48.276;14.242;2023-08-24T11:41:18;12.77;;;6.85;;
39896;SDS011;25567;48.276;14.242;2023-08-24T11:43:45;14.20;;;6.43;;
39896;SDS011;25567;48.276;14.242;2023-08-24T11:46:13;16.38;;;6.40;;
39896;SDS011;25567;48.276;14.242;2023-08-24T11:48:41;12.63;;;6.40;;
39896;SDS011;25567;48.276;14.242;2023-08-24T11:51:09;13.75;;;6.75;;
39896;SDS011;25567;48.276;14.242;2023-08-24T11:53:36;12.25;;;6.68;;
39896;SDS011;25567;48.276;14.242;2023-08-24T11:56:03;11.30;;;6.53;;
39896;SDS011;25567;48.276;14.242;2023-08-24T11:58:32;11.38;;;6.68;;
39896;SDS011;25567;48.276;14.242;2023-08-24T12:00:58;16.02;;;6.55;;
39896;SDS011;25567;48.276;14.242;2023-08-24T12:03:25;10.95;;;6.40;;
39896;SDS011;25567;48.276;14.242;2023-08-24T12:05:52;10.88;;;6.90;;
39896;SDS011;25567;48.276;14.242;2023-08-24T12:08:18;13.63;;;7.35;;
39896;SDS011;25567;48.276;14.242;2023-08-24T12:10:45;13.50;;;7.00;;
39896;SDS011;25567;48.276;14.242;2023-08-24T12:13:11;10.80;;;6.38;;
39896;SDS011;25567;48.276;14.242;2023-08-24T12:15:39;11.73;;;6.45;;
39896;SDS011;25567;48.276;14.242;2023-08-24T12:18:13;9.77;;;6.57;;
39896;SDS011;25567;48.276;14.242;2023-08-24T12:20:40;12.10;;;6.55;;
39896;SDS011;25567;48.276;14.242;2023-08-24T12:23:08;17.05;;;5.80;;
39896;SDS011;25567;48.276;14.242;2023-08-24T12:25:38;12.43;;;6.63;;
39896;SDS011;25567;48.276;14.242;2023-08-24T12:28:08;11.45;;;6.45;;
39896;SDS011;25567;48.276;14.242;2023-08-24T12:30:45;20.00;;;7.32;;
39896;SDS011;25567;48.276;14.242;2023-08-24T12:33:24;10.20;;;6.00;;
39896;SDS011;25567;48.276;14.242;2023-08-24T12:35:52;11.95;;;6.28;;
39896;SDS011;25567;48.276;14.242;2023-08-24T12:38:19;15.23;;;6.07;;
39896;SDS011;25567;48.276;14.242;2023-08-24T12:40:45;11.02;;;6.43;;
39896;SDS011;25567;48.276;14.242;2023-08-24T12:43:12;11.77;;;5.95;;
39896;SDS011;25567;48.276;14.242;2023-08-24T12:45:39;12.57;;;6.05;;
39896;SDS011;25567;48.276;14.242;2023-08-24T12:48:06;11.48;;;5.43;;
39896;SDS011;25567;48.276;14.242;2023-08-24T12:50:33;10.55;;;5.25;;
39896;SDS011;25567;48.276;14.242;2023-08-24T12:53:01;12.02;;;5.40;;
39896;SDS011;25567;48.276;14.242;2023-08-24T12:55:28;8.75;;;5.57;;
39896;SDS011;25567;48.276;14.242;2023-08-24T12:57:55;9.65;;;5.68;;
39896;SDS011;25567;48.276;14.242;2023-08-24T13:00:22;9.15;;;6.05;;
39896;SDS011;25567;48.276;14.242;2023-08-24T13:02:49;10.32;;;5.55;;
39896;SDS011;25567;48.276;14.242;2023-08-24T13:05:16;9.05;;;5.45;;
39896;SDS011;25567;48.276;14.242;2023-08-24T13:07:42;9.90;;;5.30;;
39896;SDS011;25567;48.276;14.242;2023-08-24T13:10:09;11.48;;;5.43;;
39896;SDS011;25567;48.276;14.242;2023-08-24T13:12:36;9.82;;;5.32;;
39896;SDS011;25567;48.276;14.242;2023-08-24T13:15:03;10.32;;;5.95;;
39896;SDS011;25567;48.276;14.242;2023-08-24T13:17:30;11.00;;;5.65;;
39896;SDS011;25567;48.276;14.242;2023-08-24T13:19:57;20.52;;;5.45;;
39896;SDS011;25567;48.276;14.242;2023-08-24T13:22:23;13.02;;;5.85;;
39896;SDS011;25567;48.276;14.242;2023-08-24T13:24:50;11.77;;;5.78;;
39896;SDS011;25567;48.276;14.242;2023-08-24T13:27:16;8.27;;;4.90;;
39896;SDS011;25567;48.276;14.242;2023-08-24T13:29:43;9.35;;;5.57;;
39896;SDS011;25567;48.276;14.242;2023-08-24T13:32:10;11.98;;;5.00;;
39896;SDS011;25567;48.276;14.242;2023-08-24T13:34:36;8.82;;;5.40;;
39896;SDS011;25567;48.276;14.242;2023-08-24T13:37:03;11.18;;;5.35;;
39896;SDS011;25567;48.276;14.242;2023-08-24T13:39:30;6.93;;;4.97;;
39896;SDS011;25567;48.276;14.242;2023-08-24T13:41:59;12.77;;;5.10;;
39896;SDS011;25567;48.276;14.242;2023-08-24T13:44:25;10.05;;;5.18;;
39896;SDS011;25567;48.276;14.242;2023-08-24T13:46:52;12.80;;;5.50;;
39896;SDS011;25567;48.276;14.242;2023-08-24T13:49:18;7.13;;;5.22;;
39896;SDS011;25567;48.276;14.242;2023-08-24T13:52:05;10.85;;;5.40;;
39896;SDS011;25567;48.276;14.242;2023-08-24T13:54:32;12.18;;;5.03;;
39896;SDS011;25567;48.276;14.242;2023-08-24T13:56:58;12.73;;;5.40;;
39896;SDS011;25567;48.276;14.242;2023-08-24T13:59:26;9.90;;;5.47;;
39896;SDS011;25567;48.276;14.242;2023-08-24T14:01:53;10.70;;;5.15;;
39896;SDS011;25567;48.276;14.242;2023-08-24T14:04:20;10.35;;;4.97;;
39896;SDS011;25567;48.276;14.242;2023-08-24T14:06:46;10.77;;;4.97;;
39896;SDS011;25567;48.276;14.242;2023-08-24T14:09:14;7.85;;;5.07;;
39896;SDS011;25567;48.276;14.242;2023-08-24T14:11:41;11.80;;;5.10;;
39896;SDS011;25567;48.276;14.242;2023-08-24T14:14:07;9.45;;;4.80;;
39896;SDS011;25567;48.276;14.242;2023-08-24T14:16:34;13.13;;;4.80;;
39896;SDS011;25567;48.276;14.242;2023-08-24T14:19:01;11.05;;;5.20;;
39896;SDS011;25567;48.276;14.242;2023-08-24T14:21:30;13.45;;;5.07;;
39896;SDS011;25567;48.276;14.242;2023-08-24T14:24:10;16.45;;;4.65;;
39896;SDS011;25567;48.276;14.242;2023-08-24T14:26:36;14.07;;;5.22;;
39896;SDS011;25567;48.276;14.242;2023-08-24T14:29:05;13.95;;;4.88;;
39896;SDS011;25567;48.276;14.242;2023-08-24T14:31:32;9.02;;;4.85;;
39896;SDS011;25567;48.276;14.242;2023-08-24T14:33:58;12.70;;;4.50;;